sensor_id;sensor_type;location;lat;lon;timestamp;P1;durP1;ratioP1;P2;durP2;ratioP2
7215;SDS011;3649;48.798;9.798;2023-02-11T00:01:27;34.90;;;23.37;;
7215;SDS011;3649;48.798;9.798;2023-02-11T00:03:56;34.17;;;23.10;;
7215;SDS011;3649;48.798;9.798;2023-02-11T00:06:27;34.00;;;23.77;;
7215;SDS011;3649;48.798;9.798;2023-02-11T00:08:57;38.57;;;22.57;;
7215;SDS011;3649;48.798;9.798;2023-02-11T00:11:25;31.10;;;20.17;;
7215;SDS011;3649;48.798;9.798;2023-02-11T00:13:56;36.30;;;23.17;;
7215;SDS011;3649;48.798;9.798;2023-02-11T00:16:25;29.33;;;20.43;;
7215;SDS011;3649;48.798;9.798;2023-02-11T00:18:52;33.43;;;20.70;;
7215;SDS011;3649;48.798;9.798;2023-02-11T00:21:22;28.73;;;19.10;;
7215;SDS011;3649;48.798;9.798;2023-02-11T00:23:51;34.50;;;21.20;;
7215;SDS011;3649;48.798;9.798;2023-02-11T00:26:21;28.60;;;20.07;;
7215;SDS011;3649;48.798;9.798;2023-02-11T00:28:53;29.50;;;20.43;;
7215;SDS011;3649;48.798;9.798;2023-02-11T00:31:23;31.10;;;21.00;;
7215;SDS011;3649;48.798;9.798;2023-02-11T00:33:51;36.07;;;22.03;;
7215;SDS011;3649;48.798;9.798;2023-02-11T00:36:20;35.13;;;22.17;;
7215;SDS011;3649;48.798;9.798;2023-02-11T00:38:52;34.90;;;21.67;;
7215;SDS011;3649;48.798;9.798;2023-02-11T00:41:21;34.60;;;23.07;;
7215;SDS011;3649;48.798;9.798;2023-02-11T00:43:49;33.77;;;22.40;;
7215;SDS011;3649;48.798;9.798;2023-02-11T00:46:17;35.00;;;22.83;;
7215;SDS011;3649;48.798;9.798;2023-02-11T00:48:44;34.63;;;21.87;;
7215;SDS011;3649;48.798;9.798;2023-02-11T00:51:11;35.63;;;23.10;;
7215;SDS011;3649;48.798;9.798;2023-02-11T00:53:38;38.97;;;22.43;;
7215;SDS011;3649;48.798;9.798;2023-02-11T00:56:07;37.93;;;24.07;;
7215;SDS011;3649;48.798;9.798;2023-02-11T00:58:34;40.53;;;24.17;;
7215;SDS011;3649;48.798;9.798;2023-02-11T01:01:02;37.73;;;23.57;;
7215;SDS011;3649;48.798;9.798;2023-02-11T01:03:29;36.50;;;24.70;;
7215;SDS011;3649;48.798;9.798;2023-02-11T01:05:56;41.17;;;24.53;;
7215;SDS011;3649;48.798;9.798;2023-02-11T01:08:23;37.00;;;22.97;;
7215;SDS011;3649;48.798;9.798;2023-02-11T01:10:57;34.93;;;23.57;;
7215;SDS011;3649;48.798;9.798;2023-02-11T01:13:30;36.73;;;22.30;;
7215;SDS011;3649;48.798;9.798;2023-02-11T01:15:58;39.20;;;24.47;;
7215;SDS011;3649;48.798;9.798;2023-02-11T01:18:35;33.77;;;22.07;;
7215;SDS011;3649;48.798;9.798;2023-02-11T01:21:02;36.97;;;23.10;;
7215;SDS011;3649;48.798;9.798;2023-02-11T01:23:30;36.17;;;22.57;;
7215;SDS011;3649;48.798;9.798;2023-02-11T01:25:57;32.97;;;21.63;;
7215;SDS011;3649;48.798;9.798;2023-02-11T01:28:25;37.80;;;21.90;;
7215;SDS011;3649;48.798;9.798;2023-02-11T01:31:02;34.27;;;22.23;;
7215;SDS011;3649;48.798;9.798;2023-02-11T01:33:29;34.93;;;21.30;;
7215;SDS011;3649;48.798;9.798;2023-02-11T01:35:59;31.47;;;20.97;;
7215;SDS011;3649;48.798;9.798;2023-02-11T01:38:29;32.77;;;19.83;;
7215;SDS011;3649;48.798;9.798;2023-02-11T01:40:57;33.30;;;20.87;;
7215;SDS011;3649;48.798;9.798;2023-02-11T01:43:27;33.27;;;21.90;;
7215;SDS011;3649;48.798;9.798;2023-02-11T01:45:58;34.73;;;22.20;;
7215;SDS011;3649;48.798;9.798;2023-02-11T01:48:37;33.93;;;21.50;;
7215;SDS011;3649;48.798;9.798;2023-02-11T01:51:54;33.47;;;20.80;;
7215;SDS011;3649;48.798;9.798;2023-02-11T01:54:03;31.60;;;21.43;;
7215;SDS011;3649;48.798;9.798;2023-02-11T01:56:51;34.23;;;21.80;;
7215;SDS011;3649;48.798;9.798;2023-02-11T02:00:02;33.23;;;21.63;;
7215;SDS011;3649;48.798;9.798;2023-02-11T02:10:54;33.33;;;19.73;;
7215;SDS011;3649;48.798;9.798;2023-02-11T02:13:24;28.33;;;19.27;;
7215;SDS011;3649;48.798;9.798;2023-02-11T02:15:53;29.23;;;19.77;;
7215;SDS011;3649;48.798;9.798;2023-02-11T02:35:26;31.90;;;21.33;;
7215;SDS011;3649;48.798;9.798;2023-02-11T02:38:02;36.97;;;20.50;;
7215;SDS011;3649;48.798;9.798;2023-02-11T02:40:50;33.77;;;20.97;;
7215;SDS011;3649;48.798;9.798;2023-02-11T02:43:22;36.47;;;22.40;;
7215;SDS011;3649;48.798;9.798;2023-02-11T02:45:51;35.57;;;21.50;;
7215;SDS011;3649;48.798;9.798;2023-02-11T02:48:36;32.13;;;21.13;;
7215;SDS011;3649;48.798;9.798;2023-02-11T02:51:14;29.70;;;20.23;;
7215;SDS011;3649;48.798;9.798;2023-02-11T03:08:02;32.93;;;20.67;;
7215;SDS011;3649;48.798;9.798;2023-02-11T03:10:50;31.20;;;19.63;;
7215;SDS011;3649;48.798;9.798;2023-02-11T03:13:28;40.67;;;22.33;;
7215;SDS011;3649;48.798;9.798;2023-02-11T03:16:12;30.90;;;20.23;;
7215;SDS011;3649;48.798;9.798;2023-02-11T03:18:45;34.13;;;19.77;;
7215;SDS011;3649;48.798;9.798;2023-02-11T03:21:16;30.83;;;19.93;;
7215;SDS011;3649;48.798;9.798;2023-02-11T03:23:55;30.57;;;20.13;;
7215;SDS011;3649;48.798;9.798;2023-02-11T03:26:33;29.30;;;20.23;;
7215;SDS011;3649;48.798;9.798;2023-02-11T03:37:17;33.07;;;20.27;;
7215;SDS011;3649;48.798;9.798;2023-02-11T03:39:59;30.00;;;19.73;;
7215;SDS011;3649;48.798;9.798;2023-02-11T03:42:37;32.93;;;21.27;;
7215;SDS011;3649;48.798;9.798;2023-02-11T03:45:15;33.43;;;20.07;;
7215;SDS011;3649;48.798;9.798;2023-02-11T03:47:46;29.70;;;19.50;;
7215;SDS011;3649;48.798;9.798;2023-02-11T03:50:17;33.07;;;21.10;;
7215;SDS011;3649;48.798;9.798;2023-02-11T03:52:45;28.70;;;19.67;;
7215;SDS011;3649;48.798;9.798;2023-02-11T03:55:17;30.07;;;18.77;;
7215;SDS011;3649;48.798;9.798;2023-02-11T03:57:45;30.33;;;20.33;;
7215;SDS011;3649;48.798;9.798;2023-02-11T04:00:13;27.47;;;18.80;;
7215;SDS011;3649;48.798;9.798;2023-02-11T04:02:40;31.33;;;19.57;;
7215;SDS011;3649;48.798;9.798;2023-02-11T04:05:09;30.53;;;20.70;;
7215;SDS011;3649;48.798;9.798;2023-02-11T04:07:39;29.63;;;20.30;;
7215;SDS011;3649;48.798;9.798;2023-02-11T04:10:07;31.77;;;21.03;;
7215;SDS011;3649;48.798;9.798;2023-02-11T04:12:34;26.33;;;19.07;;
7215;SDS011;3649;48.798;9.798;2023-02-11T04:15:01;28.33;;;20.73;;
7215;SDS011;3649;48.798;9.798;2023-02-11T04:17:27;35.17;;;21.80;;
7215;SDS011;3649;48.798;9.798;2023-02-11T04:19:54;37.37;;;20.83;;
7215;SDS011;3649;48.798;9.798;2023-02-11T04:22:21;27.50;;;19.70;;
7215;SDS011;3649;48.798;9.798;2023-02-11T04:24:48;27.67;;;19.47;;
7215;SDS011;3649;48.798;9.798;2023-02-11T04:27:15;29.57;;;20.67;;
7215;SDS011;3649;48.798;9.798;2023-02-11T04:29:42;31.53;;;20.97;;
7215;SDS011;3649;48.798;9.798;2023-02-11T04:32:09;29.37;;;19.00;;
7215;SDS011;3649;48.798;9.798;2023-02-11T04:34:36;27.70;;;19.97;;
7215;SDS011;3649;48.798;9.798;2023-02-11T04:37:03;30.83;;;19.80;;
7215;SDS011;3649;48.798;9.798;2023-02-11T04:39:30;29.83;;;20.80;;
7215;SDS011;3649;48.798;9.798;2023-02-11T04:41:57;33.70;;;19.60;;
7215;SDS011;3649;48.798;9.798;2023-02-11T04:44:24;33.13;;;20.90;;
7215;SDS011;3649;48.798;9.798;2023-02-11T04:46:51;39.27;;;22.03;;
7215;SDS011;3649;48.798;9.798;2023-02-11T04:49:18;30.83;;;20.70;;
7215;SDS011;3649;48.798;9.798;2023-02-11T04:51:45;32.27;;;20.73;;
7215;SDS011;3649;48.798;9.798;2023-02-11T04:54:15;33.80;;;21.20;;
7215;SDS011;3649;48.798;9.798;2023-02-11T04:56:42;35.67;;;21.63;;
7215;SDS011;3649;48.798;9.798;2023-02-11T04:59:09;35.37;;;21.97;;
7215;SDS011;3649;48.798;9.798;2023-02-11T05:01:38;37.77;;;22.87;;
7215;SDS011;3649;48.798;9.798;2023-02-11T05:04:06;31.37;;;20.80;;
7215;SDS011;3649;48.798;9.798;2023-02-11T05:06:33;28.87;;;20.37;;
7215;SDS011;3649;48.798;9.798;2023-02-11T05:08:59;30.03;;;20.63;;
7215;SDS011;3649;48.798;9.798;2023-02-11T05:11:26;31.47;;;19.73;;
7215;SDS011;3649;48.798;9.798;2023-02-11T05:13:53;30.37;;;21.00;;
7215;SDS011;3649;48.798;9.798;2023-02-11T05:16:20;31.53;;;20.17;;
7215;SDS011;3649;48.798;9.798;2023-02-11T05:18:47;33.27;;;20.63;;
7215;SDS011;3649;48.798;9.798;2023-02-11T05:21:17;33.90;;;20.87;;
7215;SDS011;3649;48.798;9.798;2023-02-11T05:23:45;34.30;;;21.97;;
7215;SDS011;3649;48.798;9.798;2023-02-11T05:26:12;31.77;;;20.83;;
7215;SDS011;3649;48.798;9.798;2023-02-11T05:28:40;27.83;;;19.40;;
7215;SDS011;3649;48.798;9.798;2023-02-11T05:31:07;31.13;;;20.90;;
7215;SDS011;3649;48.798;9.798;2023-02-11T05:33:35;35.97;;;20.00;;
7215;SDS011;3649;48.798;9.798;2023-02-11T05:36:06;31.90;;;20.33;;
7215;SDS011;3649;48.798;9.798;2023-02-11T05:38:35;30.50;;;20.47;;
7215;SDS011;3649;48.798;9.798;2023-02-11T05:41:03;29.23;;;21.03;;
7215;SDS011;3649;48.798;9.798;2023-02-11T05:43:31;35.27;;;21.03;;
7215;SDS011;3649;48.798;9.798;2023-02-11T05:46:00;32.40;;;21.80;;
7215;SDS011;3649;48.798;9.798;2023-02-11T05:48:28;33.57;;;20.67;;
7215;SDS011;3649;48.798;9.798;2023-02-11T05:50:54;34.83;;;21.57;;
7215;SDS011;3649;48.798;9.798;2023-02-11T05:53:21;31.00;;;20.83;;
7215;SDS011;3649;48.798;9.798;2023-02-11T05:55:49;31.30;;;20.70;;
7215;SDS011;3649;48.798;9.798;2023-02-11T05:58:16;33.53;;;22.20;;
7215;SDS011;3649;48.798;9.798;2023-02-11T06:00:43;40.73;;;23.30;;
7215;SDS011;3649;48.798;9.798;2023-02-11T06:03:09;44.17;;;24.70;;
7215;SDS011;3649;48.798;9.798;2023-02-11T06:05:36;36.87;;;24.43;;
7215;SDS011;3649;48.798;9.798;2023-02-11T06:08:04;37.47;;;23.33;;
7215;SDS011;3649;48.798;9.798;2023-02-11T06:10:30;38.07;;;23.37;;
7215;SDS011;3649;48.798;9.798;2023-02-11T06:12:57;35.40;;;23.03;;
7215;SDS011;3649;48.798;9.798;2023-02-11T06:15:24;38.37;;;22.13;;
7215;SDS011;3649;48.798;9.798;2023-02-11T06:17:51;39.03;;;22.60;;
7215;SDS011;3649;48.798;9.798;2023-02-11T06:20:18;34.57;;;21.13;;
7215;SDS011;3649;48.798;9.798;2023-02-11T06:22:45;30.23;;;20.43;;
7215;SDS011;3649;48.798;9.798;2023-02-11T06:25:12;33.20;;;21.97;;
7215;SDS011;3649;48.798;9.798;2023-02-11T06:27:40;33.73;;;21.87;;
7215;SDS011;3649;48.798;9.798;2023-02-11T06:30:07;34.50;;;22.20;;
7215;SDS011;3649;48.798;9.798;2023-02-11T06:32:34;31.27;;;22.27;;
7215;SDS011;3649;48.798;9.798;2023-02-11T06:35:09;32.50;;;21.17;;
7215;SDS011;3649;48.798;9.798;2023-02-11T06:37:38;44.97;;;25.97;;
7215;SDS011;3649;48.798;9.798;2023-02-11T06:40:05;33.43;;;21.83;;
7215;SDS011;3649;48.798;9.798;2023-02-11T06:42:33;28.80;;;19.30;;
7215;SDS011;3649;48.798;9.798;2023-02-11T06:45:01;29.73;;;20.83;;
7215;SDS011;3649;48.798;9.798;2023-02-11T06:47:31;31.93;;;21.97;;
7215;SDS011;3649;48.798;9.798;2023-02-11T06:49:58;33.87;;;22.40;;
7215;SDS011;3649;48.798;9.798;2023-02-11T06:52:25;36.63;;;22.03;;
7215;SDS011;3649;48.798;9.798;2023-02-11T06:54:52;35.23;;;22.80;;
7215;SDS011;3649;48.798;9.798;2023-02-11T06:57:18;34.33;;;21.20;;
7215;SDS011;3649;48.798;9.798;2023-02-11T06:59:45;30.87;;;20.73;;
7215;SDS011;3649;48.798;9.798;2023-02-11T07:02:12;33.43;;;20.90;;
7215;SDS011;3649;48.798;9.798;2023-02-11T07:04:39;33.47;;;22.33;;
7215;SDS011;3649;48.798;9.798;2023-02-11T07:07:06;33.17;;;21.50;;
7215;SDS011;3649;48.798;9.798;2023-02-11T07:09:33;33.50;;;21.57;;
7215;SDS011;3649;48.798;9.798;2023-02-11T07:12:00;33.87;;;21.73;;
7215;SDS011;3649;48.798;9.798;2023-02-11T07:14:27;35.00;;;22.57;;
7215;SDS011;3649;48.798;9.798;2023-02-11T07:16:53;30.07;;;21.00;;
7215;SDS011;3649;48.798;9.798;2023-02-11T07:19:20;38.03;;;21.80;;
7215;SDS011;3649;48.798;9.798;2023-02-11T07:21:47;34.83;;;21.80;;
7215;SDS011;3649;48.798;9.798;2023-02-11T07:24:14;37.27;;;23.90;;
7215;SDS011;3649;48.798;9.798;2023-02-11T07:26:41;33.97;;;22.07;;
7215;SDS011;3649;48.798;9.798;2023-02-11T07:29:08;33.87;;;22.20;;
7215;SDS011;3649;48.798;9.798;2023-02-11T07:31:35;34.13;;;22.77;;
7215;SDS011;3649;48.798;9.798;2023-02-11T07:34:02;32.87;;;22.60;;
7215;SDS011;3649;48.798;9.798;2023-02-11T07:36:29;32.50;;;23.67;;
7215;SDS011;3649;48.798;9.798;2023-02-11T07:38:57;36.73;;;24.13;;
7215;SDS011;3649;48.798;9.798;2023-02-11T07:41:25;37.50;;;24.27;;
7215;SDS011;3649;48.798;9.798;2023-02-11T07:43:52;38.87;;;24.07;;
7215;SDS011;3649;48.798;9.798;2023-02-11T07:46:24;40.17;;;25.50;;
7215;SDS011;3649;48.798;9.798;2023-02-11T07:48:53;37.17;;;24.03;;
7215;SDS011;3649;48.798;9.798;2023-02-11T07:51:28;31.93;;;21.40;;
7215;SDS011;3649;48.798;9.798;2023-02-11T07:53:57;36.63;;;22.43;;
7215;SDS011;3649;48.798;9.798;2023-02-11T07:56:25;35.63;;;22.30;;
7215;SDS011;3649;48.798;9.798;2023-02-11T07:58:53;34.73;;;21.63;;
7215;SDS011;3649;48.798;9.798;2023-02-11T08:01:23;34.20;;;22.30;;
7215;SDS011;3649;48.798;9.798;2023-02-11T08:03:55;32.77;;;21.73;;
7215;SDS011;3649;48.798;9.798;2023-02-11T08:06:23;39.47;;;22.97;;
7215;SDS011;3649;48.798;9.798;2023-02-11T08:08:52;34.03;;;22.87;;
7215;SDS011;3649;48.798;9.798;2023-02-11T08:11:26;37.77;;;22.53;;
7215;SDS011;3649;48.798;9.798;2023-02-11T08:13:56;36.70;;;23.67;;
7215;SDS011;3649;48.798;9.798;2023-02-11T08:18:52;30.50;;;21.67;;
7215;SDS011;3649;48.798;9.798;2023-02-11T08:21:21;35.93;;;21.17;;
7215;SDS011;3649;48.798;9.798;2023-02-11T08:23:48;33.23;;;20.13;;
7215;SDS011;3649;48.798;9.798;2023-02-11T08:26:17;33.23;;;22.07;;
7215;SDS011;3649;48.798;9.798;2023-02-11T08:28:46;33.23;;;21.57;;
7215;SDS011;3649;48.798;9.798;2023-02-11T08:31:14;29.60;;;20.27;;
7215;SDS011;3649;48.798;9.798;2023-02-11T08:33:43;33.53;;;22.07;;
7215;SDS011;3649;48.798;9.798;2023-02-11T08:36:17;30.83;;;21.93;;
7215;SDS011;3649;48.798;9.798;2023-02-11T08:38:46;32.93;;;20.23;;
7215;SDS011;3649;48.798;9.798;2023-02-11T08:41:13;29.57;;;20.93;;
7215;SDS011;3649;48.798;9.798;2023-02-11T08:43:41;30.43;;;22.07;;
7215;SDS011;3649;48.798;9.798;2023-02-11T08:46:13;33.13;;;21.47;;
7215;SDS011;3649;48.798;9.798;2023-02-11T08:48:43;31.00;;;20.93;;
7215;SDS011;3649;48.798;9.798;2023-02-11T08:51:18;31.57;;;21.93;;
7215;SDS011;3649;48.798;9.798;2023-02-11T08:53:47;37.00;;;21.60;;
7215;SDS011;3649;48.798;9.798;2023-02-11T08:56:16;28.53;;;20.67;;
7215;SDS011;3649;48.798;9.798;2023-02-11T08:58:44;30.97;;;20.40;;
7215;SDS011;3649;48.798;9.798;2023-02-11T09:03:39;26.90;;;19.37;;
7215;SDS011;3649;48.798;9.798;2023-02-11T09:06:07;26.13;;;17.80;;
7215;SDS011;3649;48.798;9.798;2023-02-11T09:08:36;28.63;;;19.37;;
7215;SDS011;3649;48.798;9.798;2023-02-11T09:11:04;28.67;;;19.23;;
7215;SDS011;3649;48.798;9.798;2023-02-11T09:13:32;26.63;;;19.03;;
7215;SDS011;3649;48.798;9.798;2023-02-11T09:15:59;25.80;;;17.67;;
7215;SDS011;3649;48.798;9.798;2023-02-11T09:18:27;29.27;;;18.47;;
7215;SDS011;3649;48.798;9.798;2023-02-11T09:21:01;26.47;;;18.60;;
7215;SDS011;3649;48.798;9.798;2023-02-11T09:23:32;31.10;;;18.80;;
7215;SDS011;3649;48.798;9.798;2023-02-11T09:26:06;27.60;;;17.17;;
7215;SDS011;3649;48.798;9.798;2023-02-11T09:28:35;30.00;;;17.13;;
7215;SDS011;3649;48.798;9.798;2023-02-11T09:31:06;24.43;;;17.70;;
7215;SDS011;3649;48.798;9.798;2023-02-11T09:33:38;25.30;;;17.10;;
7215;SDS011;3649;48.798;9.798;2023-02-11T09:36:07;30.80;;;21.20;;
7215;SDS011;3649;48.798;9.798;2023-02-11T09:38:34;27.97;;;19.40;;
7215;SDS011;3649;48.798;9.798;2023-02-11T09:41:01;24.67;;;16.60;;
7215;SDS011;3649;48.798;9.798;2023-02-11T09:43:36;25.10;;;16.43;;
7215;SDS011;3649;48.798;9.798;2023-02-11T09:46:14;23.20;;;15.67;;
7215;SDS011;3649;48.798;9.798;2023-02-11T09:48:42;21.43;;;16.43;;
7215;SDS011;3649;48.798;9.798;2023-02-11T09:51:14;27.97;;;16.50;;
7215;SDS011;3649;48.798;9.798;2023-02-11T09:53:42;22.60;;;14.67;;
7215;SDS011;3649;48.798;9.798;2023-02-11T09:56:10;27.80;;;16.87;;
7215;SDS011;3649;48.798;9.798;2023-02-11T09:58:40;22.57;;;15.97;;
7215;SDS011;3649;48.798;9.798;2023-02-11T10:04:01;25.03;;;15.37;;
7215;SDS011;3649;48.798;9.798;2023-02-11T10:22:52;23.33;;;15.57;;
7215;SDS011;3649;48.798;9.798;2023-02-11T10:25:26;21.87;;;14.83;;
7215;SDS011;3649;48.798;9.798;2023-02-11T10:27:58;27.87;;;15.90;;
7215;SDS011;3649;48.798;9.798;2023-02-11T10:30:55;20.47;;;15.27;;
7215;SDS011;3649;48.798;9.798;2023-02-11T10:33:30;20.20;;;13.73;;
7215;SDS011;3649;48.798;9.798;2023-02-11T10:36:23;22.53;;;15.20;;
7215;SDS011;3649;48.798;9.798;2023-02-11T10:38:54;23.03;;;14.70;;
7215;SDS011;3649;48.798;9.798;2023-02-11T10:41:29;21.53;;;14.47;;
7215;SDS011;3649;48.798;9.798;2023-02-11T10:43:59;19.53;;;14.00;;
7215;SDS011;3649;48.798;9.798;2023-02-11T10:46:30;19.77;;;15.03;;
7215;SDS011;3649;48.798;9.798;2023-02-11T10:49:00;21.63;;;15.77;;
7215;SDS011;3649;48.798;9.798;2023-02-11T10:51:29;21.57;;;14.80;;
7215;SDS011;3649;48.798;9.798;2023-02-11T10:56:31;19.93;;;14.50;;
7215;SDS011;3649;48.798;9.798;2023-02-11T11:01:47;19.30;;;12.60;;
7215;SDS011;3649;48.798;9.798;2023-02-11T11:06:55;15.20;;;11.40;;
7215;SDS011;3649;48.798;9.798;2023-02-11T11:09:42;15.43;;;11.43;;
7215;SDS011;3649;48.798;9.798;2023-02-11T11:15:13;14.53;;;10.63;;
7215;SDS011;3649;48.798;9.798;2023-02-11T11:17:41;11.50;;;9.40;;
7215;SDS011;3649;48.798;9.798;2023-02-11T11:20:19;10.70;;;8.07;;
7215;SDS011;3649;48.798;9.798;2023-02-11T11:22:53;11.23;;;8.97;;
7215;SDS011;3649;48.798;9.798;2023-02-11T11:25:40;11.27;;;8.27;;
7215;SDS011;3649;48.798;9.798;2023-02-11T11:28:22;10.23;;;8.20;;
7215;SDS011;3649;48.798;9.798;2023-02-11T11:30:53;9.00;;;7.30;;
7215;SDS011;3649;48.798;9.798;2023-02-11T11:33:26;14.47;;;8.60;;
7215;SDS011;3649;48.798;9.798;2023-02-11T11:36:07;10.47;;;8.10;;
7215;SDS011;3649;48.798;9.798;2023-02-11T11:38:37;11.33;;;8.47;;
7215;SDS011;3649;48.798;9.798;2023-02-11T11:41:33;10.43;;;7.37;;
7215;SDS011;3649;48.798;9.798;2023-02-11T11:44:14;11.87;;;8.23;;
7215;SDS011;3649;48.798;9.798;2023-02-11T11:46:52;13.27;;;8.40;;
7215;SDS011;3649;48.798;9.798;2023-02-11T11:49:50;11.83;;;8.47;;
7215;SDS011;3649;48.798;9.798;2023-02-11T11:55:21;11.87;;;8.67;;
7215;SDS011;3649;48.798;9.798;2023-02-11T11:57:52;11.50;;;8.27;;
7215;SDS011;3649;48.798;9.798;2023-02-11T12:22:08;13.23;;;8.40;;
7215;SDS011;3649;48.798;9.798;2023-02-11T12:24:55;9.43;;;7.77;;
7215;SDS011;3649;48.798;9.798;2023-02-11T12:33:39;9.80;;;8.07;;
7215;SDS011;3649;48.798;9.798;2023-02-11T12:39:06;10.27;;;7.57;;
7215;SDS011;3649;48.798;9.798;2023-02-11T12:53:16;9.83;;;7.53;;
7215;SDS011;3649;48.798;9.798;2023-02-11T12:55:47;13.27;;;8.23;;
7215;SDS011;3649;48.798;9.798;2023-02-11T12:58:20;12.60;;;8.83;;
7215;SDS011;3649;48.798;9.798;2023-02-11T13:01:09;12.77;;;7.13;;
7215;SDS011;3649;48.798;9.798;2023-02-11T13:03:53;17.23;;;8.20;;
7215;SDS011;3649;48.798;9.798;2023-02-11T13:06:39;10.43;;;7.80;;
7215;SDS011;3649;48.798;9.798;2023-02-11T13:09:17;15.53;;;8.80;;
7215;SDS011;3649;48.798;9.798;2023-02-11T13:11:50;14.20;;;8.93;;
7215;SDS011;3649;48.798;9.798;2023-02-11T13:14:25;13.50;;;8.33;;
7215;SDS011;3649;48.798;9.798;2023-02-11T13:16:56;11.90;;;7.60;;
7215;SDS011;3649;48.798;9.798;2023-02-11T13:19:32;11.17;;;8.67;;
7215;SDS011;3649;48.798;9.798;2023-02-11T13:25:02;12.70;;;8.87;;
7215;SDS011;3649;48.798;9.798;2023-02-11T13:35:31;11.37;;;8.03;;
7215;SDS011;3649;48.798;9.798;2023-02-11T13:37:58;11.00;;;7.90;;
7215;SDS011;3649;48.798;9.798;2023-02-11T13:40:28;11.63;;;7.87;;
7215;SDS011;3649;48.798;9.798;2023-02-11T13:43:01;9.93;;;7.40;;
7215;SDS011;3649;48.798;9.798;2023-02-11T13:45:32;11.73;;;7.50;;
7215;SDS011;3649;48.798;9.798;2023-02-11T13:50:48;10.87;;;7.80;;
7215;SDS011;3649;48.798;9.798;2023-02-11T13:53:27;15.57;;;9.10;;
7215;SDS011;3649;48.798;9.798;2023-02-11T13:56:08;12.37;;;8.17;;
7215;SDS011;3649;48.798;9.798;2023-02-11T13:58:47;15.17;;;8.83;;
7215;SDS011;3649;48.798;9.798;2023-02-11T14:21:12;11.67;;;9.07;;
7215;SDS011;3649;48.798;9.798;2023-02-11T14:23:45;12.50;;;8.83;;
7215;SDS011;3649;48.798;9.798;2023-02-11T14:40:24;11.87;;;10.13;;
7215;SDS011;3649;48.798;9.798;2023-02-11T14:42:52;11.93;;;9.17;;
7215;SDS011;3649;48.798;9.798;2023-02-11T14:45:23;16.10;;;10.23;;
7215;SDS011;3649;48.798;9.798;2023-02-11T14:50:26;13.70;;;10.83;;
7215;SDS011;3649;48.798;9.798;2023-02-11T14:53:10;15.10;;;10.10;;
7215;SDS011;3649;48.798;9.798;2023-02-11T14:55:40;15.03;;;10.87;;
7215;SDS011;3649;48.798;9.798;2023-02-11T14:58:14;15.07;;;11.43;;
7215;SDS011;3649;48.798;9.798;2023-02-11T15:00:57;14.53;;;10.50;;
7215;SDS011;3649;48.798;9.798;2023-02-11T15:03:36;15.67;;;10.37;;
7215;SDS011;3649;48.798;9.798;2023-02-11T15:08:50;16.27;;;10.93;;
7215;SDS011;3649;48.798;9.798;2023-02-11T15:11:42;18.17;;;11.43;;
7215;SDS011;3649;48.798;9.798;2023-02-11T15:14:18;12.20;;;10.30;;
7215;SDS011;3649;48.798;9.798;2023-02-11T15:16:49;17.53;;;11.33;;
7215;SDS011;3649;48.798;9.798;2023-02-11T15:19:26;22.27;;;11.67;;
7215;SDS011;3649;48.798;9.798;2023-02-11T15:22:00;14.03;;;10.50;;
7215;SDS011;3649;48.798;9.798;2023-02-11T15:24:33;14.10;;;10.93;;
7215;SDS011;3649;48.798;9.798;2023-02-11T15:29:41;16.27;;;10.67;;
7215;SDS011;3649;48.798;9.798;2023-02-11T15:32:12;17.27;;;10.60;;
7215;SDS011;3649;48.798;9.798;2023-02-11T15:34:43;14.60;;;10.77;;
7215;SDS011;3649;48.798;9.798;2023-02-11T15:39:48;16.20;;;11.17;;
7215;SDS011;3649;48.798;9.798;2023-02-11T15:42:16;15.53;;;10.30;;
7215;SDS011;3649;48.798;9.798;2023-02-11T15:47:39;14.90;;;10.50;;
7215;SDS011;3649;48.798;9.798;2023-02-11T15:50:19;13.87;;;11.27;;
7215;SDS011;3649;48.798;9.798;2023-02-11T15:52:47;16.57;;;11.87;;
7215;SDS011;3649;48.798;9.798;2023-02-11T15:55:16;16.87;;;11.40;;
7215;SDS011;3649;48.798;9.798;2023-02-11T15:57:52;17.50;;;11.53;;
7215;SDS011;3649;48.798;9.798;2023-02-11T16:00:23;15.57;;;11.47;;
7215;SDS011;3649;48.798;9.798;2023-02-11T16:02:53;19.60;;;11.80;;
7215;SDS011;3649;48.798;9.798;2023-02-11T16:05:25;14.40;;;11.30;;
7215;SDS011;3649;48.798;9.798;2023-02-11T16:07:54;15.37;;;11.07;;
7215;SDS011;3649;48.798;9.798;2023-02-11T16:12:55;15.27;;;11.50;;
7215;SDS011;3649;48.798;9.798;2023-02-11T16:18:01;15.07;;;11.77;;
7215;SDS011;3649;48.798;9.798;2023-02-11T16:20:30;18.30;;;11.00;;
7215;SDS011;3649;48.798;9.798;2023-02-11T16:22:57;16.70;;;11.70;;
7215;SDS011;3649;48.798;9.798;2023-02-11T16:25:24;17.93;;;12.03;;
7215;SDS011;3649;48.798;9.798;2023-02-11T16:27:51;18.27;;;13.30;;
7215;SDS011;3649;48.798;9.798;2023-02-11T16:30:23;16.77;;;11.03;;
7215;SDS011;3649;48.798;9.798;2023-02-11T16:33:03;17.13;;;11.63;;
7215;SDS011;3649;48.798;9.798;2023-02-11T16:35:30;20.73;;;13.57;;
7215;SDS011;3649;48.798;9.798;2023-02-11T16:37:58;18.90;;;12.60;;
7215;SDS011;3649;48.798;9.798;2023-02-11T16:40:24;17.97;;;13.57;;
7215;SDS011;3649;48.798;9.798;2023-02-11T16:42:51;22.33;;;13.67;;
7215;SDS011;3649;48.798;9.798;2023-02-11T16:45:18;17.07;;;12.57;;
7215;SDS011;3649;48.798;9.798;2023-02-11T16:47:45;15.83;;;12.00;;
7215;SDS011;3649;48.798;9.798;2023-02-11T16:50:22;19.23;;;12.83;;
7215;SDS011;3649;48.798;9.798;2023-02-11T16:52:50;15.87;;;12.67;;
7215;SDS011;3649;48.798;9.798;2023-02-11T16:55:18;15.70;;;12.70;;
7215;SDS011;3649;48.798;9.798;2023-02-11T16:57:47;16.10;;;11.83;;
7215;SDS011;3649;48.798;9.798;2023-02-11T17:00:14;15.67;;;11.93;;
7215;SDS011;3649;48.798;9.798;2023-02-11T17:02:42;13.77;;;11.10;;
7215;SDS011;3649;48.798;9.798;2023-02-11T17:05:16;15.13;;;11.83;;
7215;SDS011;3649;48.798;9.798;2023-02-11T17:07:48;14.47;;;11.37;;
7215;SDS011;3649;48.798;9.798;2023-02-11T17:10:16;18.10;;;11.57;;
7215;SDS011;3649;48.798;9.798;2023-02-11T17:12:45;20.10;;;11.67;;
7215;SDS011;3649;48.798;9.798;2023-02-11T17:15:13;16.90;;;11.47;;
7215;SDS011;3649;48.798;9.798;2023-02-11T17:17:40;16.27;;;11.77;;
7215;SDS011;3649;48.798;9.798;2023-02-11T17:20:09;14.60;;;11.37;;
7215;SDS011;3649;48.798;9.798;2023-02-11T17:22:38;13.93;;;11.33;;
7215;SDS011;3649;48.798;9.798;2023-02-11T17:25:05;16.40;;;11.83;;
7215;SDS011;3649;48.798;9.798;2023-02-11T17:27:32;18.07;;;11.90;;
7215;SDS011;3649;48.798;9.798;2023-02-11T17:29:59;17.00;;;12.03;;
7215;SDS011;3649;48.798;9.798;2023-02-11T17:32:26;16.77;;;12.23;;
7215;SDS011;3649;48.798;9.798;2023-02-11T17:34:53;17.30;;;12.93;;
7215;SDS011;3649;48.798;9.798;2023-02-11T17:37:20;23.47;;;15.03;;
7215;SDS011;3649;48.798;9.798;2023-02-11T17:39:47;22.60;;;14.30;;
7215;SDS011;3649;48.798;9.798;2023-02-11T17:42:16;24.43;;;15.83;;
7215;SDS011;3649;48.798;9.798;2023-02-11T17:44:44;21.53;;;12.80;;
7215;SDS011;3649;48.798;9.798;2023-02-11T17:47:11;17.47;;;13.23;;
7215;SDS011;3649;48.798;9.798;2023-02-11T17:49:38;19.20;;;13.53;;
7215;SDS011;3649;48.798;9.798;2023-02-11T17:52:05;25.13;;;14.23;;
7215;SDS011;3649;48.798;9.798;2023-02-11T17:54:33;23.47;;;13.47;;
7215;SDS011;3649;48.798;9.798;2023-02-11T17:57:00;19.50;;;14.13;;
7215;SDS011;3649;48.798;9.798;2023-02-11T17:59:26;20.03;;;13.57;;
7215;SDS011;3649;48.798;9.798;2023-02-11T18:01:56;21.57;;;14.90;;
7215;SDS011;3649;48.798;9.798;2023-02-11T18:04:23;23.63;;;15.43;;
7215;SDS011;3649;48.798;9.798;2023-02-11T18:06:50;23.10;;;15.43;;
7215;SDS011;3649;48.798;9.798;2023-02-11T18:09:18;24.03;;;15.57;;
7215;SDS011;3649;48.798;9.798;2023-02-11T18:11:45;21.67;;;14.20;;
7215;SDS011;3649;48.798;9.798;2023-02-11T18:14:13;23.23;;;14.73;;
7215;SDS011;3649;48.798;9.798;2023-02-11T18:16:40;24.57;;;13.27;;
7215;SDS011;3649;48.798;9.798;2023-02-11T18:19:10;20.57;;;13.40;;
7215;SDS011;3649;48.798;9.798;2023-02-11T18:21:37;19.03;;;11.53;;
7215;SDS011;3649;48.798;9.798;2023-02-11T18:24:04;19.67;;;12.07;;
7215;SDS011;3649;48.798;9.798;2023-02-11T18:26:32;18.80;;;11.53;;